createdAt,value
2018-01-14T00:01:29.791Z,90.50
2018-01-14T00:03:58.113Z,90.83
2018-01-14T00:06:27.740Z,90.31
2018-01-14T00:08:56.830Z,90.30
2018-01-14T00:11:25.932Z,90.04
2018-01-14T00:13:54.250Z,90.61
2018-01-14T00:16:22.569Z,89.81
2018-01-14T00:18:50.918Z,89.53
2018-01-14T00:21:19.264Z,89.12
2018-01-14T00:23:47.608Z,90.41
2018-01-14T00:26:17.449Z,90.51
2018-01-14T00:28:46.582Z,90.20
2018-01-14T00:31:14.918Z,90.72
2018-01-14T00:33:44.338Z,90.99
2018-01-14T00:36:12.668Z,90.53
2018-01-14T00:38:41.035Z,90.03
2018-01-14T00:41:09.372Z,91.54
2018-01-14T00:43:37.723Z,91.22
2018-01-14T00:46:06.050Z,90.46
2018-01-14T00:48:34.390Z,90.20
2018-01-14T00:51:02.731Z,90.00
2018-01-14T00:53:31.077Z,90.96
2018-01-14T00:55:59.424Z,89.81
2018-01-14T00:58:27.746Z,90.16
2018-01-14T01:00:56.112Z,90.08
2018-01-14T01:03:24.448Z,89.38
2018-01-14T01:05:52.777Z,89.36
2018-01-14T01:08:21.117Z,89.02
2018-01-14T01:10:49.456Z,89.31
2018-01-14T01:13:17.775Z,89.54
2018-01-14T01:15:46.114Z,89.79
2018-01-14T01:18:14.460Z,89.26
2018-01-14T01:20:42.808Z,89.06
2018-01-14T01:23:11.137Z,89.16
2018-01-14T01:25:40.252Z,89.66
2018-01-14T01:28:08.588Z,90.04
2018-01-14T01:30:36.943Z,89.66
2018-01-14T01:33:05.262Z,89.48
2018-01-14T01:35:33.594Z,88.88
2018-01-14T01:38:01.936Z,88.84
2018-01-14T01:40:31.004Z,89.49
2018-01-14T01:42:59.370Z,89.50
2018-01-14T01:45:27.694Z,88.80
2018-01-14T01:47:56.032Z,88.82
2018-01-14T01:50:24.373Z,89.17
2018-01-14T01:52:52.691Z,90.16
2018-01-14T01:55:21.026Z,89.63
2018-01-14T01:57:49.449Z,88.81
2018-01-14T02:00:17.792Z,87.83
2018-01-14T02:02:46.128Z,87.83
2018-01-14T02:05:15.250Z,88.20
2018-01-14T02:07:43.592Z,87.59
2018-01-14T02:10:11.948Z,87.31
2018-01-14T02:12:40.290Z,88.15
2018-01-14T02:15:08.615Z,88.03
2018-01-14T02:17:36.945Z,88.10
2018-01-14T02:20:05.269Z,88.96
2018-01-14T02:22:33.604Z,87.70
2018-01-14T02:25:01.941Z,88.04
2018-01-14T02:27:30.331Z,87.38
2018-01-14T02:29:58.661Z,87.08
2018-01-14T02:32:26.982Z,86.75
2018-01-14T02:34:56.083Z,87.21
2018-01-14T02:37:24.414Z,88.12
2018-01-14T02:39:52.757Z,87.50
2018-01-14T02:42:21.082Z,87.50
2018-01-14T02:44:49.424Z,86.91
2018-01-14T02:47:17.744Z,86.49
2018-01-14T02:49:46.101Z,87.10
2018-01-14T02:52:14.446Z,86.72
2018-01-14T02:54:42.787Z,86.48
2018-01-14T02:57:11.137Z,86.87
2018-01-14T02:59:39.472Z,86.15
2018-01-14T03:02:07.811Z,86.02
2018-01-14T03:04:36.138Z,84.43
2018-01-14T03:07:04.469Z,83.90
2018-01-14T03:09:32.816Z,84.38
2018-01-14T03:12:01.137Z,84.86
2018-01-14T03:14:29.477Z,84.43
2018-01-14T03:16:57.816Z,85.41
2018-01-14T03:19:27.217Z,85.92
2018-01-14T03:21:55.551Z,85.54
2018-01-14T03:24:23.883Z,84.08
2018-01-14T03:26:52.219Z,84.08
2018-01-14T03:29:21.307Z,83.42
2018-01-14T03:31:50.153Z,83.08
2018-01-14T03:34:18.491Z,83.84
2018-01-14T03:36:46.832Z,84.34
2018-01-14T03:39:15.200Z,84.22
2018-01-14T03:41:43.596Z,82.90
2018-01-14T03:44:11.940Z,83.65
2018-01-14T03:46:40.268Z,82.88
2018-01-14T03:49:08.600Z,82.91
2018-01-14T03:51:36.939Z,82.56
2018-01-14T03:54:06.055Z,82.54
2018-01-14T03:56:34.384Z,82.15
2018-01-14T03:59:02.724Z,81.58
2018-01-14T04:01:31.041Z,81.75
2018-01-14T04:03:59.372Z,81.59
2018-01-14T04:06:27.691Z,81.03
2018-01-14T04:08:56.007Z,80.64
2018-01-14T04:11:24.334Z,79.47
2018-01-14T04:13:53.368Z,79.29
2018-01-14T04:16:22.727Z,79.14
2018-01-14T04:18:51.057Z,78.70
2018-01-14T04:21:19.388Z,78.89
2018-01-14T04:23:47.730Z,78.17
2018-01-14T04:26:16.076Z,78.78
2018-01-14T04:28:46.138Z,78.30
2018-01-14T04:31:14.472Z,79.13
2018-01-14T04:33:43.902Z,80.53
2018-01-14T04:36:12.231Z,80.30
2018-01-14T04:38:41.729Z,79.75
2018-01-14T04:41:10.058Z,79.85
2018-01-14T04:43:38.392Z,80.01
2018-01-14T04:46:06.726Z,80.43
2018-01-14T04:48:35.055Z,79.56
2018-01-14T04:51:03.401Z,79.70
2018-01-14T04:53:31.757Z,79.80
2018-01-14T04:56:00.093Z,79.90
2018-01-14T04:58:28.422Z,79.83
2018-01-14T05:00:56.761Z,79.70
2018-01-14T05:03:25.099Z,79.96
2018-01-14T05:05:53.429Z,79.59
2018-01-14T05:08:21.742Z,79.71
2018-01-14T05:10:50.086Z,79.84
2018-01-14T05:13:18.415Z,80.04
2018-01-14T05:15:46.764Z,79.97
2018-01-14T05:18:15.091Z,79.74
2018-01-14T05:20:44.191Z,80.18
2018-01-14T05:23:12.502Z,81.02
2018-01-14T05:25:40.824Z,80.26
2018-01-14T05:28:09.153Z,80.59
2018-01-14T05:30:37.499Z,81.09
2018-01-14T05:33:05.828Z,81.51
2018-01-14T05:35:35.508Z,80.67
2018-01-14T05:38:03.826Z,78.90
2018-01-14T05:40:32.146Z,79.15
2018-01-14T05:43:01.230Z,80.11
2018-01-14T05:45:29.573Z,80.58
2018-01-14T05:47:57.921Z,80.39
2018-01-14T05:50:26.250Z,80.55
2018-01-14T05:52:55.499Z,80.35
2018-01-14T05:55:23.840Z,80.29
2018-01-14T05:57:52.941Z,80.59
2018-01-14T06:00:22.050Z,80.19
2018-01-14T06:02:50.390Z,80.05
2018-01-14T06:05:18.729Z,80.44
2018-01-14T06:07:47.074Z,80.58
2018-01-14T06:10:15.387Z,80.60
2018-01-14T06:12:43.722Z,81.04
2018-01-14T06:15:12.817Z,80.40
2018-01-14T06:17:41.144Z,80.01
2018-01-14T06:20:09.468Z,80.32
2018-01-14T06:22:38.596Z,78.87
2018-01-14T06:25:06.929Z,78.76
2018-01-14T06:27:35.266Z,79.02
2018-01-14T06:30:03.593Z,80.33
2018-01-14T06:32:32.700Z,79.96
2018-01-14T06:35:01.042Z,80.79
2018-01-14T06:37:30.401Z,80.42
2018-01-14T06:39:58.731Z,79.35
2018-01-14T06:42:27.052Z,79.00
2018-01-14T06:44:55.397Z,80.17
2018-01-14T06:47:24.486Z,80.73
2018-01-14T06:49:52.865Z,80.36
2018-01-14T06:52:21.427Z,79.08
2018-01-14T06:54:49.750Z,79.49
2018-01-14T06:57:18.070Z,79.75
2018-01-14T06:59:46.419Z,80.02
2018-01-14T07:02:14.758Z,79.20
2018-01-14T07:04:43.120Z,79.25
2018-01-14T07:07:11.457Z,78.84
2018-01-14T07:09:39.778Z,79.17
2018-01-14T07:12:08.113Z,79.33
2018-01-14T07:14:36.444Z,79.18
2018-01-14T07:17:04.808Z,78.83
2018-01-14T07:19:33.152Z,80.32
2018-01-14T07:22:01.488Z,79.58
2018-01-14T07:24:29.822Z,79.59
2018-01-14T07:26:58.156Z,79.22
2018-01-14T07:29:26.493Z,79.06
2018-01-14T07:31:55.679Z,78.69
2018-01-14T07:34:24.156Z,80.24
2018-01-14T07:36:52.474Z,79.27
2018-01-14T07:39:20.812Z,78.14
2018-01-14T07:41:49.165Z,78.99
2018-01-14T07:44:17.482Z,79.67
2018-01-14T07:46:45.835Z,78.86
2018-01-14T07:49:14.148Z,79.47
2018-01-14T07:51:42.494Z,79.83
2018-01-14T07:54:10.815Z,80.38
2018-01-14T07:56:39.157Z,80.07
2018-01-14T07:59:08.436Z,79.66
2018-01-14T08:01:36.755Z,80.48
2018-01-14T08:04:05.070Z,79.34
2018-01-14T08:06:33.385Z,78.45
2018-01-14T08:09:01.709Z,79.20
2018-01-14T08:11:30.031Z,78.60
2018-01-14T08:13:58.359Z,78.90
2018-01-14T08:16:26.687Z,78.24
2018-01-14T08:18:55.010Z,78.42
2018-01-14T08:21:24.120Z,77.72
2018-01-14T08:23:52.502Z,77.51
2018-01-14T08:26:20.834Z,77.27
2018-01-14T08:28:49.169Z,77.50
2018-01-14T08:31:17.511Z,76.75
2018-01-14T08:33:46.618Z,76.87
2018-01-14T08:36:14.938Z,76.06
2018-01-14T08:38:43.249Z,76.60
2018-01-14T08:41:12.383Z,77.32
2018-01-14T08:43:40.703Z,77.37
2018-01-14T08:46:09.047Z,76.48
2018-01-14T08:48:37.370Z,76.03
2018-01-14T08:51:05.713Z,76.51
2018-01-14T08:53:34.035Z,75.40
2018-01-14T08:56:02.376Z,75.48
2018-01-14T08:58:30.718Z,74.95
2018-01-14T09:00:59.076Z,75.52
2018-01-14T09:03:27.412Z,74.86
2018-01-14T09:05:55.750Z,73.75
2018-01-14T09:08:24.080Z,74.71
2018-01-14T09:10:52.398Z,73.40
2018-01-14T09:13:21.297Z,73.35
2018-01-14T09:15:49.622Z,73.35
2018-01-14T09:18:17.946Z,71.76
2018-01-14T09:20:47.759Z,70.66
2018-01-14T09:23:16.092Z,70.67
2018-01-14T09:25:44.439Z,70.33
2018-01-14T09:28:12.783Z,70.43
2018-01-14T09:31:07.666Z,70.07
2018-01-14T09:33:36.001Z,70.05
2018-01-14T09:36:04.322Z,68.55
2018-01-14T09:38:33.775Z,70.19
2018-01-14T09:41:02.130Z,69.66
2018-01-14T09:43:30.451Z,69.69
2018-01-14T09:45:58.811Z,69.27
2018-01-14T09:48:27.833Z,69.39
2018-01-14T09:50:57.682Z,69.05
2018-01-14T09:53:26.010Z,69.24
2018-01-14T09:55:54.374Z,68.48
2018-01-14T09:58:22.712Z,67.83
2018-01-14T10:00:51.812Z,68.54
2018-01-14T10:03:20.139Z,68.32
2018-01-14T10:05:48.478Z,66.79
2018-01-14T10:08:16.802Z,65.87
2018-01-14T10:10:45.122Z,65.73
2018-01-14T10:13:13.460Z,65.21
2018-01-14T10:15:41.794Z,66.01
2018-01-14T10:18:10.766Z,66.30
2018-01-14T10:20:39.097Z,65.09
2018-01-14T10:23:07.449Z,65.54
2018-01-14T10:25:35.773Z,64.98
2018-01-14T10:28:04.583Z,65.75
2018-01-14T10:30:32.921Z,64.96
2018-01-14T10:33:01.244Z,64.85
2018-01-14T10:35:30.333Z,64.93
2018-01-14T10:37:58.660Z,65.22
2018-01-14T10:40:26.992Z,63.96
2018-01-14T10:42:56.086Z,64.09
2018-01-14T10:45:24.403Z,64.24
2018-01-14T10:47:52.740Z,64.12
2018-01-14T10:50:21.850Z,63.95
2018-01-14T10:52:50.203Z,64.33
2018-01-14T10:55:19.370Z,64.14
2018-01-14T10:57:47.709Z,64.33
2018-01-14T11:00:16.053Z,63.84
2018-01-14T11:02:44.384Z,64.39
2018-01-14T11:05:12.731Z,64.06
2018-01-14T11:07:41.064Z,64.15
2018-01-14T11:10:09.388Z,62.84
2018-01-14T11:12:38.482Z,63.07
2018-01-14T11:15:06.827Z,62.93
2018-01-14T11:17:35.164Z,61.73
2018-01-14T11:20:03.513Z,61.01
2018-01-14T11:22:32.642Z,60.03
2018-01-14T11:25:00.980Z,60.48
2018-01-14T11:27:29.312Z,59.09
2018-01-14T11:30:10.645Z,59.52
2018-01-14T11:32:38.966Z,58.43
2018-01-14T11:35:07.312Z,59.10
2018-01-14T11:37:35.651Z,60.09
2018-01-14T11:40:04.777Z,60.75
2018-01-14T11:42:33.114Z,58.80
2018-01-14T11:45:01.457Z,57.78
2018-01-14T11:47:29.788Z,57.62
2018-01-14T11:49:58.108Z,58.42
2018-01-14T11:52:26.423Z,58.53
2018-01-14T11:54:54.742Z,58.36
2018-01-14T11:57:23.835Z,57.40
2018-01-14T11:59:52.159Z,57.69
2018-01-14T12:02:20.478Z,56.37
2018-01-14T12:04:48.821Z,56.63
2018-01-14T12:07:17.138Z,56.53
2018-01-14T12:09:46.267Z,57.50
2018-01-14T12:12:14.614Z,57.41
2018-01-14T12:14:42.953Z,58.06
2018-01-14T12:17:11.292Z,56.54
2018-01-14T12:19:39.633Z,55.61
2018-01-14T12:22:08.732Z,55.22
2018-01-14T12:24:37.054Z,56.29
2018-01-14T12:27:05.370Z,55.06
2018-01-14T12:29:33.686Z,55.03
2018-01-14T12:32:02.020Z,53.47
2018-01-14T12:34:40.118Z,54.06
2018-01-14T12:37:08.462Z,54.32
2018-01-14T12:39:36.848Z,54.66
2018-01-14T12:42:05.173Z,53.77
2018-01-14T12:44:34.280Z,54.03
2018-01-14T12:47:03.614Z,53.07
2018-01-14T12:49:33.490Z,53.34
2018-01-14T12:52:01.840Z,53.37
2018-01-14T12:54:30.157Z,53.81
2018-01-14T12:56:59.246Z,53.01
2018-01-14T12:59:28.346Z,54.45
2018-01-14T13:01:56.701Z,54.53
2018-01-14T13:04:25.036Z,54.67
2018-01-14T13:06:53.355Z,53.13
2018-01-14T13:09:21.684Z,52.96
2018-01-14T13:11:50.016Z,52.63
2018-01-14T13:14:18.359Z,53.97
2018-01-14T13:16:46.692Z,52.00
2018-01-14T13:19:15.043Z,52.30
2018-01-14T13:21:43.380Z,51.38
2018-01-14T13:24:11.711Z,51.10
2018-01-14T13:26:40.314Z,52.41
2018-01-14T13:29:08.650Z,53.20
2018-01-14T13:31:36.981Z,52.95
2018-01-14T13:34:05.322Z,52.45
2018-01-14T13:36:33.650Z,52.03
2018-01-14T13:39:01.992Z,51.39
2018-01-14T13:41:31.100Z,50.96
2018-01-14T13:43:59.434Z,50.86
2018-01-14T13:46:27.780Z,52.00
2018-01-14T13:48:56.094Z,52.08
2018-01-14T13:51:24.454Z,50.21
2018-01-14T13:53:52.814Z,49.88
2018-01-14T13:56:21.169Z,50.23
2018-01-14T13:58:49.528Z,50.98
2018-01-14T14:01:18.619Z,51.47
2018-01-14T14:03:47.743Z,50.15
2018-01-14T14:06:16.125Z,50.83
2018-01-14T14:08:44.516Z,51.61
2018-01-14T14:11:12.940Z,50.62
2018-01-14T14:13:42.160Z,50.15
2018-01-14T14:16:10.655Z,51.25
2018-01-14T14:18:39.602Z,50.92
2018-01-14T14:21:10.211Z,51.39
2018-01-14T14:23:39.295Z,52.49
2018-01-14T14:26:08.415Z,52.69
2018-01-14T14:28:36.897Z,51.67
2018-01-14T14:31:05.346Z,51.42
2018-01-14T14:33:33.720Z,51.81
2018-01-14T14:36:02.058Z,51.69
2018-01-14T14:38:30.422Z,51.84
2018-01-14T14:40:58.782Z,53.19
2018-01-14T14:43:27.129Z,53.07
2018-01-14T14:45:55.455Z,52.87
2018-01-14T14:48:23.902Z,52.59
2018-01-14T14:50:52.331Z,52.51
2018-01-14T14:53:20.873Z,53.12
2018-01-14T14:55:49.354Z,52.47
2018-01-14T14:58:18.018Z,51.99
2018-01-14T15:00:46.523Z,51.97
2018-01-14T15:03:14.995Z,51.85
2018-01-14T15:05:43.491Z,52.84
2018-01-14T15:08:12.717Z,53.56
2018-01-14T15:10:42.129Z,55.01
2018-01-14T15:13:11.731Z,55.95
2018-01-14T15:15:41.349Z,56.38
2018-01-14T15:18:10.905Z,56.57
2018-01-14T15:20:41.137Z,57.25
2018-01-14T15:23:10.202Z,59.27
2018-01-14T15:25:39.306Z,59.45
2018-01-14T15:28:08.286Z,60.57
2018-01-14T15:30:38.249Z,62.27
2018-01-14T15:33:07.513Z,62.04
2018-01-14T15:35:36.971Z,62.67
2018-01-14T15:38:06.035Z,63.03
2018-01-14T15:40:35.163Z,63.75
2018-01-14T15:43:04.828Z,64.78
2018-01-14T15:45:34.643Z,65.66
2018-01-14T15:48:04.421Z,66.53
2018-01-14T15:50:33.948Z,66.71
2018-01-14T15:53:04.473Z,67.38
2018-01-14T15:55:34.262Z,67.55
2018-01-14T15:58:04.736Z,68.23
2018-01-14T16:00:34.526Z,69.36
2018-01-14T16:03:04.332Z,69.23
2018-01-14T16:05:34.147Z,70.23
2018-01-14T16:08:04.293Z,69.78
2018-01-14T16:10:34.131Z,70.30
2018-01-14T16:13:03.844Z,70.56
2018-01-14T16:15:33.665Z,70.55
2018-01-14T16:18:03.562Z,70.86
2018-01-14T16:20:33.389Z,71.09
2018-01-14T16:23:03.240Z,70.75
2018-01-14T16:25:33.084Z,71.35
2018-01-14T16:28:02.971Z,71.41
2018-01-14T16:30:33.067Z,70.96
2018-01-14T16:33:03.990Z,70.91
2018-01-14T16:35:33.831Z,71.20
2018-01-14T16:38:03.693Z,70.47
2018-01-14T16:40:33.613Z,70.35
2018-01-14T16:43:04.354Z,70.21
2018-01-14T16:45:34.250Z,70.83
2018-01-14T16:48:04.093Z,70.60
2018-01-14T16:50:34.700Z,70.60
2018-01-14T16:53:04.790Z,70.90
2018-01-14T16:55:34.713Z,70.78
2018-01-14T16:58:05.540Z,70.96
2018-01-14T17:00:35.456Z,71.03
2018-01-14T17:03:05.589Z,71.46
2018-01-14T17:05:36.395Z,71.72
2018-01-14T17:08:06.174Z,71.89
2018-01-14T17:10:35.958Z,71.85
2018-01-14T17:13:05.726Z,72.36
2018-01-14T17:15:35.878Z,72.20
2018-01-14T17:18:05.730Z,72.44
2018-01-14T17:20:35.618Z,72.63
2018-01-14T17:23:06.355Z,72.82
2018-01-14T17:25:36.229Z,73.42
2018-01-14T17:28:06.269Z,73.78
2018-01-14T17:30:36.635Z,74.69
2018-01-14T17:33:06.527Z,75.05
2018-01-14T17:35:36.385Z,75.51
2018-01-14T17:38:06.256Z,75.97
2018-01-14T17:40:36.120Z,76.20
2018-01-14T17:43:07.622Z,76.56
2018-01-14T17:45:37.614Z,76.60
2018-01-14T17:48:07.468Z,76.15
2018-01-14T17:50:38.250Z,76.45
2018-01-14T17:53:08.165Z,76.64
2018-01-14T17:55:38.107Z,76.82
2018-01-14T17:58:08.174Z,77.73
2018-01-14T18:00:38.130Z,78.40
2018-01-14T18:03:08.039Z,79.75
2018-01-14T18:05:37.934Z,80.55
2018-01-14T18:08:07.780Z,80.61
2018-01-14T18:10:37.653Z,80.95
2018-01-14T18:13:07.706Z,80.73
2018-01-14T18:15:38.311Z,80.57
2018-01-14T18:18:08.314Z,80.60
2018-01-14T18:20:38.291Z,80.28
2018-01-14T18:23:08.279Z,79.51
2018-01-14T18:25:38.063Z,79.33
2018-01-14T18:28:07.969Z,79.56
2018-01-14T18:30:38.285Z,79.45
2018-01-14T18:33:08.114Z,80.15
2018-01-14T18:35:38.914Z,80.58
2018-01-14T18:38:08.868Z,80.05
2018-01-14T18:40:38.935Z,79.74
2018-01-14T18:43:08.798Z,79.73
2018-01-14T18:45:55.761Z,79.87
2018-01-14T18:48:25.667Z,79.73
2018-01-14T18:50:57.251Z,80.06
2018-01-14T18:53:27.469Z,80.60
2018-01-14T18:55:57.521Z,81.19
2018-01-14T18:58:27.415Z,81.52
2018-01-14T19:00:57.369Z,81.33
2018-01-14T19:03:28.189Z,81.41
2018-01-14T19:05:58.108Z,81.50
2018-01-14T19:08:28.011Z,81.24
2018-01-14T19:10:59.006Z,80.81
2018-01-14T19:13:29.042Z,80.50
2018-01-14T19:15:58.955Z,80.43
2018-01-14T19:18:28.874Z,81.36
2018-01-14T19:20:58.753Z,81.96
2018-01-14T19:23:28.690Z,82.62
2018-01-14T19:25:58.576Z,83.37
2018-01-14T19:28:29.516Z,83.94
2018-01-14T19:31:00.530Z,84.30
2018-01-14T19:33:30.518Z,83.99
2018-01-14T19:36:00.519Z,83.23
2018-01-14T19:38:31.198Z,82.72
2018-01-14T19:41:01.120Z,82.07
2018-01-14T19:43:30.983Z,81.69
2018-01-14T19:46:01.026Z,82.15
2018-01-14T19:48:31.305Z,82.25
2018-01-14T19:51:01.313Z,82.29
2018-01-14T19:53:31.680Z,82.69
2018-01-14T19:56:01.810Z,83.10
2018-01-14T19:58:31.765Z,83.69
2018-01-14T20:01:02.638Z,84.11
2018-01-14T20:03:32.630Z,84.69
2018-01-14T20:06:02.557Z,85.57
2018-01-14T20:08:32.551Z,85.61
2018-01-14T20:27:13.904Z,85.99
2018-01-14T20:29:43.813Z,85.88
2018-01-14T20:32:15.014Z,85.86
2018-01-14T20:34:44.888Z,85.16
2018-01-14T20:37:14.779Z,84.27
2018-01-14T20:39:44.658Z,84.31
2018-01-14T20:42:14.593Z,83.97
2018-01-14T20:44:49.943Z,83.61
2018-01-14T20:47:20.726Z,82.97
2018-01-14T20:49:50.666Z,82.18
2018-01-14T20:52:20.584Z,82.10
2018-01-14T20:54:50.991Z,81.75
2018-01-14T20:57:20.858Z,81.91
2018-01-14T20:59:50.821Z,81.46
2018-01-14T21:02:20.840Z,81.09
2018-01-14T21:04:50.840Z,80.83
2018-01-14T21:07:21.546Z,80.87
2018-01-14T21:09:51.483Z,80.85
2018-01-14T21:12:21.447Z,80.96
2018-01-14T21:14:52.098Z,80.96
2018-01-14T21:17:22.012Z,81.22
2018-01-14T21:19:52.604Z,81.08
2018-01-14T21:22:22.969Z,81.10
2018-01-14T21:24:52.747Z,82.08
2018-01-14T21:27:23.037Z,81.76
2018-01-14T21:29:52.924Z,82.25
2018-01-14T21:32:23.924Z,81.92
2018-01-14T21:34:53.896Z,82.13
2018-01-14T21:37:25.226Z,81.73
2018-01-14T21:39:55.548Z,81.92
2018-01-14T21:42:25.478Z,82.04
2018-01-14T21:44:55.417Z,81.98
2018-01-14T21:47:25.303Z,82.32
2018-01-14T21:49:55.631Z,82.52
2018-01-14T21:52:25.535Z,82.42
2018-01-14T21:54:55.439Z,82.99
2018-01-14T21:57:25.329Z,83.15
2018-01-14T21:59:55.217Z,83.18
2018-01-14T22:02:25.151Z,84.04
2018-01-14T22:04:55.048Z,84.91
2018-01-14T22:07:24.912Z,85.10
2018-01-14T22:09:55.446Z,85.14
2018-01-14T22:12:25.269Z,85.15
2018-01-14T22:14:55.224Z,85.44
2018-01-14T22:17:24.997Z,85.76
2018-01-14T22:19:55.629Z,85.90
2018-01-14T22:22:25.441Z,85.69
2018-01-14T22:24:55.283Z,86.00
2018-01-14T22:27:25.198Z,86.27
2018-01-14T22:29:55.336Z,86.64
2018-01-14T22:32:24.704Z,87.27
2018-01-14T22:34:53.244Z,87.33
2018-01-14T22:37:21.684Z,87.41
2018-01-14T22:39:50.803Z,87.71
2018-01-14T22:42:19.152Z,87.26
2018-01-14T22:44:48.493Z,86.61
2018-01-14T22:47:16.836Z,86.03
2018-01-14T22:49:45.176Z,85.80
2018-01-14T22:52:13.498Z,85.45
2018-01-14T22:54:42.630Z,86.09
2018-01-14T22:57:10.973Z,86.07
2018-01-14T22:59:39.325Z,86.48
2018-01-14T23:02:07.677Z,86.88
2018-01-14T23:04:36.262Z,86.62
2018-01-14T23:07:04.604Z,87.21
2018-01-14T23:09:32.934Z,87.59
2018-01-14T23:12:01.259Z,86.45
2018-01-14T23:14:29.601Z,86.89
2018-01-14T23:16:57.932Z,87.22
2018-01-14T23:19:26.256Z,87.61
2018-01-14T23:21:54.607Z,87.82
2018-01-14T23:24:22.953Z,88.13
2018-01-14T23:26:51.272Z,87.76
2018-01-14T23:29:19.604Z,87.15
2018-01-14T23:31:47.926Z,86.66
2018-01-14T23:34:16.270Z,87.02
2018-01-14T23:36:44.609Z,86.68
2018-01-14T23:39:12.942Z,86.14
2018-01-14T23:41:41.284Z,85.98
2018-01-14T23:44:11.437Z,86.01
2018-01-14T23:46:41.361Z,86.49
2018-01-14T23:49:09.708Z,86.09
2018-01-14T23:51:38.060Z,85.66
2018-01-14T23:54:06.393Z,85.66
2018-01-14T23:56:34.729Z,85.46
2018-01-14T23:59:03.820Z,84.94
